Time;durP1;ratioP1;P1;durP2;ratioP2;P2;SDS_P1;SDS_P2;PMS_P1;PMS_P2;Temp;Humidity;BMP_temperature;BMP_pressure;BME280_temperature;BME280_humidity;BME280_pressure;Samples;Min_cycle;Max_cycle;Signal;HPM_P1;HPM_P2
2022/02/26 00:00:25;;;;;;;;;;;;;;;30.99;17.39;101043.34;5073265;28;836;-36
2022/02/26 00:02:51;;;;;;;;;;;;;;;30.96;17.78;101030.19;5075574;28;829;-34
2022/02/26 00:05:16;;;;;;;;;;;;;;;30.86;17.80;101032.44;5076096;28;1894;-35
2022/02/26 00:07:42;;;;;;;;;;;;;;;30.52;18.41;101032.22;5075458;28;1278;-35
2022/02/26 00:10:07;;;;;;;;;;;;;;;30.38;18.52;101031.31;5075867;28;978;-35
2022/02/26 00:12:32;;;;;;;;;;;;;;;30.36;18.56;101027.94;5067137;28;872;-35
2022/02/26 00:14:58;;;;;;;;;;;;;;;30.37;18.61;101016.03;5075635;28;917;-35
2022/02/26 00:17:23;;;;;;;;;;;;;;;30.43;18.57;101017.94;5070146;28;836;-35
2022/02/26 00:19:48;;;;;;;;;;;;;;;30.62;18.46;101018.28;5075707;28;796;-35
2022/02/26 00:22:14;;;;;;;;;;;;;;;30.81;18.19;101022.19;5075428;28;889;-35
2022/02/26 00:24:39;;;;;;;;;;;;;;;30.99;18.19;101028.94;5075314;28;865;-34
2022/02/26 00:27:04;;;;;;;;;;;;;;;31.17;17.90;101025.66;5075431;28;1979;-36
2022/02/26 00:29:32;;;;;;;;;;;;;;;31.26;17.83;101031.75;5075550;28;766;-37
2022/02/26 00:31:57;;;;;;;;;;;;;;;31.28;17.80;101027.75;5071887;28;1117;-35
2022/02/26 00:34:23;;;;;;;;;;;;;;;31.09;18.17;101028.53;5075028;28;801;-35
2022/02/26 00:36:48;;;;;;;;;;;;;;;30.71;18.63;101025.25;5069868;28;882;-35
2022/02/26 00:39:13;;;;;;;;;;;;;;;30.51;18.83;101027.84;5075114;28;907;-35
2022/02/26 00:41:39;;;;;;;;;;;;;;;30.49;18.90;101024.47;5075539;28;737;-36
2022/02/26 00:44:04;;;;;;;;;;;;;;;30.47;19.05;101030.09;5075446;28;845;-35
2022/02/26 00:46:29;;;;;;;;;;;;;;;30.44;19.02;101025.06;5073669;28;1917;-35
2022/02/26 00:51:39;;;;;;;;;;;;;;;30.88;18.36;101035.78;5075101;28;789;-35
2022/02/26 00:54:04;;;;;;;;;;;;;;;30.74;18.42;101030.25;5075114;28;932;-36
2022/02/26 00:56:29;;;;;;;;;;;;;;;30.60;18.76;101042.06;5075734;28;817;-37
2022/02/26 00:58:55;;;;;;;;;;;;;;;30.34;19.25;101040.88;5077528;28;889;-37
2022/02/26 01:01:21;;;;;;;;;;;;;;;30.26;19.28;101045.41;5071359;28;835;-37
2022/02/26 01:03:46;;;;;;;;;;;;;;;30.29;19.33;101047.75;5078635;28;825;-35
2022/02/26 01:06:11;;;;;;;;;;;;;;;30.34;19.32;101040.88;5078965;28;1963;-36
2022/02/26 01:08:36;;;;;;;;;;;;;;;30.49;19.18;101038.91;5078265;28;865;-35
2022/02/26 01:11:02;;;;;;;;;;;;;;;30.65;18.91;101037.72;5078748;28;841;-35
2022/02/26 01:13:27;;;;;;;;;;;;;;;30.87;18.75;101053.09;5076797;28;788;-37
2022/02/26 01:15:52;;;;;;;;;;;;;;;31.03;18.80;101041.91;5076388;28;881;-37
2022/02/26 01:18:18;;;;;;;;;;;;;;;31.15;18.41;101041.31;5078719;28;878;-34
2022/02/26 01:20:43;;;;;;;;;;;;;;;31.18;18.52;101038.19;5078963;28;795;-35
2022/02/26 01:23:08;;;;;;;;;;;;;;;31.21;18.37;101045.94;5078449;28;1303;-35
2022/02/26 01:25:33;;;;;;;;;;;;;;;31.50;18.43;101049.38;5078548;28;1957;-35
2022/02/26 01:27:59;;;;;;;;;;;;;;;31.82;17.69;101050.69;5078612;28;856;-35
2022/02/26 01:30:25;;;;;;;;;;;;;;;31.27;18.31;101049.72;5077337;28;759;-35
2022/02/26 01:32:51;;;;;;;;;;;;;;;31.03;18.54;101041.91;5076504;28;1025;-34
2022/02/26 01:35:16;;;;;;;;;;;;;;;30.97;18.87;101041.88;5078296;28;741;-35
2022/02/26 01:37:41;;;;;;;;;;;;;;;30.38;19.28;101036.75;5077898;28;868;-34
2022/02/26 01:40:07;;;;;;;;;;;;;;;30.99;18.52;101037.06;5078215;28;964;-34
2022/02/26 01:42:32;;;;;;;;;;;;;;;31.17;18.37;101047.38;5078270;28;845;-35
2022/02/26 01:44:57;;;;;;;;;;;;;;;31.25;18.36;101039.06;5076608;28;864;-35
2022/02/26 01:47:23;;;;;;;;;;;;;;;30.59;19.17;101040.41;5077645;28;1979;-35
2022/02/26 01:49:48;;;;;;;;;;;;;;;30.28;19.44;101039.81;5078090;28;877;-38
2022/02/26 01:52:14;;;;;;;;;;;;;;;30.40;19.54;101035.50;5077752;28;880;-37
2022/02/26 01:54:39;;;;;;;;;;;;;;;30.55;19.33;101042.66;5078026;28;842;-35
2022/02/26 01:57:05;;;;;;;;;;;;;;;30.65;19.21;101042.31;5077935;28;1137;-37
2022/02/26 01:59:30;;;;;;;;;;;;;;;30.82;19.17;101045.56;5077583;28;725;-37
2022/02/26 02:01:55;;;;;;;;;;;;;;;30.93;19.03;101046.88;5077569;28;836;-37
2022/02/26 02:04:21;;;;;;;;;;;;;;;31.10;18.89;101041.94;5075470;28;819;-37
2022/02/26 02:06:46;;;;;;;;;;;;;;;31.03;18.62;101047.34;5077341;28;1969;-35
2022/02/26 02:09:11;;;;;;;;;;;;;;;31.09;18.45;101051.13;5078000;28;846;-35
2022/02/26 02:11:37;;;;;;;;;;;;;;;30.78;19.33;101050.53;5077642;28;875;-37
2022/02/26 02:14:02;;;;;;;;;;;;;;;30.49;19.52;101055.19;5077345;28;809;-35
2022/02/26 02:16:28;;;;;;;;;;;;;;;30.37;19.64;101056.75;5076811;28;891;-35
2022/02/26 02:18:53;;;;;;;;;;;;;;;30.34;19.82;101052.56;5071484;28;837;-35
2022/02/26 02:21:19;;;;;;;;;;;;;;;30.36;19.85;101053.22;5077251;28;888;-35
2022/02/26 02:23:44;;;;;;;;;;;;;;;30.46;19.79;101050.16;5077764;28;785;-35
2022/02/26 02:26:10;;;;;;;;;;;;;;;30.68;19.36;101042.75;5077234;28;1964;-35
2022/02/26 02:28:35;;;;;;;;;;;;;;;30.82;19.14;101050.16;5077335;28;1027;-35
2022/02/26 02:31:00;;;;;;;;;;;;;;;31.02;19.00;101045.66;5069899;28;857;-36
2022/02/26 02:33:25;;;;;;;;;;;;;;;31.11;18.92;101059.91;5076800;28;1215;-36
2022/02/26 02:35:51;;;;;;;;;;;;;;;31.15;18.49;101061.19;5077064;28;821;-36
2022/02/26 02:38:16;;;;;;;;;;;;;;;31.33;18.21;101053.50;5076951;28;803;-36
2022/02/26 02:40:42;;;;;;;;;;;;;;;31.24;18.87;101056.41;5077069;28;824;-35
2022/02/26 02:43:09;;;;;;;;;;;;;;;30.64;19.59;101063.22;5076512;28;889;-36
2022/02/26 02:45:35;;;;;;;;;;;;;;;30.49;19.80;101060.63;5074979;28;1965;-36
2022/02/26 02:48:00;;;;;;;;;;;;;;;30.35;19.81;101065.09;5077065;28;840;-35
2022/02/26 02:50:25;;;;;;;;;;;;;;;30.34;19.97;101068.84;5076567;28;868;-35
2022/02/26 02:52:51;;;;;;;;;;;;;;;30.35;20.06;101064.25;5077211;28;783;-35
2022/02/26 02:55:16;;;;;;;;;;;;;;;30.52;19.69;101075.66;5076293;28;1206;-35
2022/02/26 02:57:42;;;;;;;;;;;;;;;30.72;19.17;101077.66;5076640;28;830;-35
2022/02/26 03:00:08;;;;;;;;;;;;;;;30.13;18.92;100953.88;5076531;28;753;-35
2022/02/26 03:02:33;;;;;;;;;;;;;;;31.49;18.51;101079.50;5070311;28;1024;-35
2022/02/26 03:04:59;;;;;;;;;;;;;;;31.55;18.64;101083.28;5076679;28;782;-36
2022/02/26 03:07:24;;;;;;;;;;;;;;;31.61;18.38;101082.47;5076331;28;1894;-36
2022/02/26 03:09:50;;;;;;;;;;;;;;;30.99;19.30;101081.41;5076293;28;896;-35
2022/02/26 03:12:15;;;;;;;;;;;;;;;30.41;19.82;101083.28;5076431;28;786;-36
2022/02/26 03:14:40;;;;;;;;;;;;;;;30.43;20.01;101081.22;5076173;28;936;-35
2022/02/26 03:17:06;;;;;;;;;;;;;;;30.64;19.64;101082.22;5071222;28;853;-35
2022/02/26 03:19:31;;;;;;;;;;;;;;;30.73;19.72;101074.72;5076333;28;884;-35
2022/02/26 03:21:56;;;;;;;;;;;;;;;30.85;19.21;101072.31;5075193;28;939;-36
2022/02/26 03:24:22;;;;;;;;;;;;;;;30.74;19.17;101076.44;5076481;28;860;-35
2022/02/26 03:26:54;;;;;;;;;;;;;;;30.55;19.87;101076.09;5076265;28;1957;-36
2022/02/26 03:29:20;;;;;;;;;;;;;;;30.25;20.17;101080.88;5075948;28;915;-35
2022/02/26 03:31:46;;;;;;;;;;;;;;;30.10;20.16;101078.22;5075856;28;1024;-35
2022/02/26 03:34:12;;;;;;;;;;;;;;;30.04;20.31;101077.13;5075884;28;844;-35
2022/02/26 03:36:37;;;;;;;;;;;;;;;30.06;20.25;101078.59;5075709;28;884;-35
2022/02/26 03:39:02;;;;;;;;;;;;;;;30.29;20.20;101084.88;5076268;28;773;-35
2022/02/26 03:41:27;;;;;;;;;;;;;;;30.51;19.90;101087.56;5076201;28;916;-36
2022/02/26 03:43:53;;;;;;;;;;;;;;;30.64;19.86;101084.09;5076169;28;940;-36
2022/02/26 03:46:18;;;;;;;;;;;;;;;30.78;19.39;101091.28;5073519;28;1902;-35
2022/02/26 03:48:43;;;;;;;;;;;;;;;30.90;19.33;101088.84;5075931;28;800;-35
2022/02/26 03:51:10;;;;;;;;;;;;;;;31.07;19.34;101101.25;5068962;28;884;-35
2022/02/26 03:53:36;;;;;;;;;;;;;;;31.10;18.87;101093.56;5076028;28;845;-36
2022/02/26 03:56:01;;;;;;;;;;;;;;;30.95;18.78;101090.16;5075644;28;829;-36
2022/02/26 03:58:27;;;;;;;;;;;;;;;31.09;19.18;101096.47;5075308;28;1572;-36
2022/02/26 04:00:52;;;;;;;;;;;;;;;30.60;19.78;101097.22;5065381;28;837;-36
2022/02/26 04:03:17;;;;;;;;;;;;;;;30.45;20.14;101091.88;5074439;28;876;-35
2022/02/26 04:05:42;;;;;;;;;;;;;;;30.34;20.14;101095.16;5075658;28;1949;-35
2022/02/26 04:08:08;;;;;;;;;;;;;;;30.34;20.14;101085.13;5075536;28;828;-35
2022/02/26 04:10:33;;;;;;;;;;;;;;;30.44;20.07;101098.38;5076181;28;777;-35
2022/02/26 04:12:58;;;;;;;;;;;;;;;30.63;19.85;101090.56;5070217;28;830;-35
2022/02/26 04:15:24;;;;;;;;;;;;;;;30.75;19.41;101107.97;5073529;28;818;-36
2022/02/26 04:17:49;;;;;;;;;;;;;;;29.08;14.37;101093.38;5075386;28;892;-41
2022/02/26 04:20:15;;;;;;;;;;;;;;;27.77;14.50;101103.31;5075315;28;841;-40
2022/02/26 04:22:40;;;;;;;;;;;;;;;29.10;17.22;101102.16;5072711;28;972;-41
2022/02/26 04:25:05;;;;;;;;;;;;;;;29.03;16.59;101099.34;5075653;28;809;-40
2022/02/26 04:27:31;;;;;;;;;;;;;;;29.06;15.97;101103.56;5075320;28;1973;-40
2022/02/26 04:29:56;;;;;;;;;;;;;;;29.26;15.13;101109.22;5069028;28;945;-39
2022/02/26 04:32:21;;;;;;;;;;;;;;;29.42;14.55;101110.91;5071006;28;1283;-44
2022/02/26 04:34:47;;;;;;;;;;;;;;;29.51;14.49;101108.06;5079220;28;1127;-45
2022/02/26 04:37:12;;;;;;;;;;;;;;;29.39;14.39;101105.00;5079345;28;749;-44
2022/02/26 04:39:37;;;;;;;;;;;;;;;29.19;14.27;101106.47;5079978;28;789;-44
2022/02/26 04:42:03;;;;;;;;;;;;;;;29.39;14.10;101113.16;5077782;28;819;-44
2022/02/26 04:44:28;;;;;;;;;;;;;;;29.02;13.49;101113.94;5079510;28;813;-44
2022/02/26 04:46:54;;;;;;;;;;;;;;;28.99;13.15;101117.03;5079313;28;1913;-44
2022/02/26 04:49:19;;;;;;;;;;;;;;;29.21;12.56;101115.22;5078825;28;803;-37
2022/02/26 04:51:44;;;;;;;;;;;;;;;29.75;12.41;101114.19;5073530;28;928;-37
2022/02/26 04:54:10;;;;;;;;;;;;;;;29.93;12.12;101121.88;5079321;28;840;-36
2022/02/26 04:56:35;;;;;;;;;;;;;;;30.09;12.18;101128.94;5072450;28;984;-36
2022/02/26 04:59:00;;;;;;;;;;;;;;;30.22;11.90;101128.25;5077539;28;837;-36
2022/02/26 05:01:25;;;;;;;;;;;;;;;30.12;12.03;101136.69;5078466;28;857;-36
2022/02/26 05:03:51;;;;;;;;;;;;;;;30.04;12.12;101143.09;5078647;28;782;-36
2022/02/26 05:06:16;;;;;;;;;;;;;;;30.09;12.05;101144.38;5078853;28;1968;-36
2022/02/26 05:08:41;;;;;;;;;;;;;;;29.85;12.20;101146.41;5078696;28;790;-37
2022/02/26 05:11:07;;;;;;;;;;;;;;;29.94;12.36;101145.28;5073734;28;1486;-36
2022/02/26 05:13:33;;;;;;;;;;;;;;;30.04;12.28;101145.81;5077341;28;758;-36
2022/02/26 05:15:58;;;;;;;;;;;;;;;30.16;12.11;101146.09;5073538;28;781;-34
2022/02/26 05:18:23;;;;;;;;;;;;;;;29.96;12.33;101155.94;5078317;28;814;-41
2022/02/26 05:20:49;;;;;;;;;;;;;;;30.08;12.68;101162.50;5079020;28;793;-34
2022/02/26 05:23:14;;;;;;;;;;;;;;;30.12;13.00;101158.38;5078259;28;845;-35
2022/02/26 05:25:39;;;;;;;;;;;;;;;30.04;13.46;101158.53;5071705;28;1967;-36
2022/02/26 05:28:04;;;;;;;;;;;;;;;30.06;13.61;101170.84;5078338;28;976;-35
2022/02/26 05:30:30;;;;;;;;;;;;;;;30.00;13.82;101176.19;5076519;28;852;-35
2022/02/26 05:32:55;;;;;;;;;;;;;;;29.94;14.21;101181.38;5077012;28;1051;-36
2022/02/26 05:35:20;;;;;;;;;;;;;;;30.12;14.35;101182.81;5078678;28;757;-37
2022/02/26 05:37:46;;;;;;;;;;;;;;;30.10;14.49;101193.00;5078351;28;949;-35
2022/02/26 05:40:11;;;;;;;;;;;;;;;30.08;14.63;101197.78;5078207;28;888;-35
2022/02/26 05:42:37;;;;;;;;;;;;;;;30.15;14.89;101200.56;5072255;28;845;-35
2022/02/26 05:45:02;;;;;;;;;;;;;;;30.16;14.91;101210.41;5077772;28;820;-36
2022/02/26 05:47:29;;;;;;;;;;;;;;;30.14;15.30;101213.31;5078026;28;1971;-36
2022/02/26 05:49:54;;;;;;;;;;;;;;;30.15;15.23;101216.84;5077730;28;1009;-36
2022/02/26 05:52:19;;;;;;;;;;;;;;;30.26;15.15;101215.53;5078119;28;880;-36
2022/02/26 05:54:45;;;;;;;;;;;;;;;30.29;15.40;101226.00;5074739;28;821;-36
2022/02/26 05:57:10;;;;;;;;;;;;;;;30.37;15.37;101230.44;5078020;28;801;-33
2022/02/26 05:59:35;;;;;;;;;;;;;;;30.24;15.88;101229.31;5077721;28;893;-35
2022/02/26 06:02:00;;;;;;;;;;;;;;;30.14;16.21;101237.72;5077805;28;998;-35
2022/02/26 06:04:26;;;;;;;;;;;;;;;30.02;16.34;101236.53;5077631;28;1245;-35
2022/02/26 06:06:51;;;;;;;;;;;;;;;30.10;16.20;101239.13;5077123;28;1902;-35
2022/02/26 06:09:16;;;;;;;;;;;;;;;30.15;16.38;101244.81;5077986;28;816;-35
2022/02/26 06:11:42;;;;;;;;;;;;;;;30.16;16.26;101235.63;5077342;28;805;-35
2022/02/26 06:14:07;;;;;;;;;;;;;;;30.15;16.32;101236.69;5077955;28;758;-35
2022/02/26 06:16:32;;;;;;;;;;;;;;;30.18;16.23;101252.56;5070750;28;932;-35
2022/02/26 06:18:57;;;;;;;;;;;;;;;30.19;16.41;101238.00;5076084;28;829;-35
2022/02/26 06:21:23;;;;;;;;;;;;;;;30.26;16.19;101238.06;5076099;28;943;-35
2022/02/26 06:23:48;;;;;;;;;;;;;;;30.27;16.36;101245.19;5073303;28;972;-35
2022/02/26 06:26:13;;;;;;;;;;;;;;;30.41;16.25;101243.44;5077457;28;1897;-35
2022/02/26 06:28:39;;;;;;;;;;;;;;;30.51;16.09;101245.00;5077230;28;904;-35
2022/02/26 06:31:04;;;;;;;;;;;;;;;30.54;16.18;101255.47;5072228;28;882;-35
2022/02/26 06:33:29;;;;;;;;;;;;;;;30.64;16.24;101245.13;5076241;28;1638;-35
2022/02/26 06:35:54;;;;;;;;;;;;;;;30.65;16.07;101244.09;5077502;28;796;-35
2022/02/26 06:38:20;;;;;;;;;;;;;;;30.71;16.23;101244.34;5077743;28;963;-35
2022/02/26 06:40:45;;;;;;;;;;;;;;;30.72;16.15;101248.72;5076728;28;1082;-35
2022/02/26 06:43:10;;;;;;;;;;;;;;;30.82;16.01;101256.56;5077740;28;833;-35
2022/02/26 06:45:36;;;;;;;;;;;;;;;30.77;16.26;101254.41;5075467;28;1965;-35
2022/02/26 06:48:01;;;;;;;;;;;;;;;30.78;16.08;101259.66;5076709;28;835;-36
2022/02/26 06:50:26;;;;;;;;;;;;;;;30.75;16.27;101265.47;5077031;28;904;-36
2022/02/26 06:52:52;;;;;;;;;;;;;;;30.75;16.22;101254.63;5077057;28;785;-36
2022/02/26 06:55:17;;;;;;;;;;;;;;;30.85;16.28;101273.31;5076010;28;801;-36
2022/02/26 06:57:42;;;;;;;;;;;;;;;30.95;16.18;101270.25;5076490;28;838;-37
2022/02/26 07:00:08;;;;;;;;;;;;;;;31.02;16.03;101281.19;5076554;28;865;-38
2022/02/26 07:02:34;;;;;;;;;;;;;;;31.08;16.26;101285.00;5076632;28;725;-38
2022/02/26 07:04:59;;;;;;;;;;;;;;;31.01;16.43;101284.94;5076660;28;876;-36
2022/02/26 07:07:24;;;;;;;;;;;;;;;31.07;16.03;101289.59;5076343;28;1964;-36
2022/02/26 07:09:50;;;;;;;;;;;;;;;31.07;16.27;101295.03;5075646;28;880;-36
2022/02/26 07:12:16;;;;;;;;;;;;;;;31.16;16.09;101293.81;5076456;28;1325;-36
2022/02/26 07:14:42;;;;;;;;;;;;;;;31.15;16.08;101292.16;5076360;28;753;-37
2022/02/26 07:17:07;;;;;;;;;;;;;;;30.89;16.40;101292.78;5076131;28;844;-36
2022/02/26 07:19:32;;;;;;;;;;;;;;;30.17;16.85;101279.91;5076587;28;872;-36
2022/02/26 07:21:59;;;;;;;;;;;;;;;28.99;18.15;101281.38;5076482;28;726;-37
2022/02/26 07:24:24;;;;;;;;;;;;;;;30.08;17.51;101279.16;5069862;28;783;-38
2022/02/26 07:26:50;;;;;;;;;;;;;;;30.48;17.20;101283.41;5075981;28;1898;-37
2022/02/26 07:29:15;;;;;;;;;;;;;;;30.34;17.29;101285.97;5076347;28;785;-35
2022/02/26 07:31:40;;;;;;;;;;;;;;;30.23;17.36;101294.63;5075530;28;880;-35
2022/02/26 07:34:06;;;;;;;;;;;;;;;30.18;17.48;101292.44;5075907;28;1210;-35
2022/02/26 07:36:31;;;;;;;;;;;;;;;30.30;17.28;101292.81;5073755;28;787;-35
2022/02/26 07:38:56;;;;;;;;;;;;;;;30.43;17.23;101295.66;5076048;28;776;-36
2022/02/26 07:41:21;;;;;;;;;;;;;;;30.47;17.15;101304.28;5076227;28;952;-35
2022/02/26 07:43:47;;;;;;;;;;;;;;;30.54;17.09;101297.03;5076406;28;779;-35
2022/02/26 07:46:12;;;;;;;;;;;;;;;30.71;16.93;101309.53;5074811;28;1964;-35
2022/02/26 07:48:38;;;;;;;;;;;;;;;30.83;16.63;101307.16;5070627;28;837;-36
2022/02/26 07:51:03;;;;;;;;;;;;;;;30.95;16.88;101307.47;5075595;28;908;-36
2022/02/26 07:53:29;;;;;;;;;;;;;;;31.14;16.52;101314.94;5075647;28;789;-36
2022/02/26 07:55:54;;;;;;;;;;;;;;;31.23;16.59;101317.50;5076022;28;907;-37
2022/02/26 07:58:21;;;;;;;;;;;;;;;31.17;16.49;101319.13;5075766;28;821;-35
2022/02/26 08:00:46;;;;;;;;;;;;;;;31.04;16.53;101320.72;5074768;28;910;-36
2022/02/26 08:03:12;;;;;;;;;;;;;;;29.57;17.81;101321.44;5075737;28;825;-36
2022/02/26 08:05:37;;;;;;;;;;;;;;;28.74;18.88;101320.31;5075704;28;1959;-36
2022/02/26 08:08:02;;;;;;;;;;;;;;;30.72;17.00;101324.75;5075647;28;888;-36
2022/02/26 08:10:28;;;;;;;;;;;;;;;30.94;16.58;101325.63;5074037;28;1082;-36
2022/02/26 08:12:53;;;;;;;;;;;;;;;30.80;16.91;101332.81;5075418;28;856;-37
2022/02/26 08:15:19;;;;;;;;;;;;;;;30.56;16.98;101334.84;5069840;28;820;-37
2022/02/26 08:17:44;;;;;;;;;;;;;;;30.40;17.22;101327.78;5072921;28;730;-35
2022/02/26 08:20:10;;;;;;;;;;;;;;;29.75;17.89;101340.09;5075972;28;825;-36
2022/02/26 08:22:35;;;;;;;;;;;;;;;28.65;19.26;101340.31;5075597;28;791;-36
2022/02/26 08:25:00;;;;;;;;;;;;;;;29.68;18.15;101334.56;5075366;28;897;-36
2022/02/26 08:27:26;;;;;;;;;;;;;;;30.42;17.22;101328.44;5071661;28;1901;-36
2022/02/26 08:29:51;;;;;;;;;;;;;;;30.39;17.35;101326.97;5075323;28;794;-36
2022/02/26 08:32:16;;;;;;;;;;;;;;;30.32;17.44;101331.47;5073399;28;1151;-36
2022/02/26 08:34:41;;;;;;;;;;;;;;;30.33;17.24;101329.59;5075534;28;1412;-35
2022/02/26 08:37:07;;;;;;;;;;;;;;;30.55;17.41;101328.59;5075500;28;745;-36
2022/02/26 08:39:32;;;;;;;;;;;;;;;30.73;17.10;101332.72;5074942;28;817;-35
2022/02/26 08:41:58;;;;;;;;;;;;;;;30.90;16.90;101329.78;5076044;28;785;-35
2022/02/26 08:44:23;;;;;;;;;;;;;;;31.14;16.82;101327.69;5075390;28;930;-36
2022/02/26 08:46:48;;;;;;;;;;;;;;;31.20;16.69;101334.22;5075002;28;1910;-35
2022/02/26 08:49:13;;;;;;;;;;;;;;;31.32;16.46;101332.63;5075661;28;784;-37
2022/02/26 08:51:39;;;;;;;;;;;;;;;31.34;16.67;101344.16;5074798;28;805;-37
2022/02/26 08:54:04;;;;;;;;;;;;;;;30.29;17.21;101343.53;5074658;28;1045;-37
2022/02/26 08:56:29;;;;;;;;;;;;;;;28.91;18.87;101339.13;5075191;28;823;-37
2022/02/26 08:58:57;;;;;;;;;;;;;;;28.40;19.24;101338.59;5075687;28;798;-36
2022/02/26 09:01:23;;;;;;;;;;;;;;;30.40;17.48;101344.06;5073097;28;887;-37
2022/02/26 09:03:48;;;;;;;;;;;;;;;28.90;18.69;101341.00;5075316;28;880;-36
2022/02/26 09:06:13;;;;;;;;;;;;;;;28.15;19.33;101340.53;5070656;28;1898;-36
2022/02/26 09:08:39;;;;;;;;;;;;;;;27.80;19.66;101328.19;5075531;28;729;-36
2022/02/26 09:11:06;;;;;;;;;;;;;;;27.82;19.80;101336.97;5073718;28;861;-36
2022/02/26 09:13:31;;;;;;;;;;;;;;;27.75;19.61;101326.00;5074835;28;852;-36
2022/02/26 09:15:58;;;;;;;;;;;;;;;27.50;19.97;101330.56;5070634;28;826;-35
2022/02/26 09:18:23;;;;;;;;;;;;;;;27.26;20.22;101321.47;5073912;28;1455;-35
2022/02/26 09:20:48;;;;;;;;;;;;;;;27.17;20.45;101323.38;5078941;28;819;-35
2022/02/26 09:23:13;;;;;;;;;;;;;;;27.14;20.07;101324.53;5078678;28;876;-35
2022/02/26 09:25:39;;;;;;;;;;;;;;;27.04;20.22;101323.88;5078663;28;1964;-35
2022/02/26 09:28:04;;;;;;;;;;;;;;;27.21;20.31;101322.00;5078445;28;828;-35
2022/02/26 09:30:30;;;;;;;;;;;;;;;28.32;19.19;101330.50;5076163;28;809;-36
2022/02/26 09:32:56;;;;;;;;;;;;;;;29.05;18.49;101323.97;5078275;28;1126;-36
2022/02/26 09:35:21;;;;;;;;;;;;;;;29.56;18.26;101325.19;5079077;28;800;-33
2022/02/26 09:37:48;;;;;;;;;;;;;;;30.01;17.55;101329.81;5078146;28;896;-34
2022/02/26 09:40:13;;;;;;;;;;;;;;;30.23;17.31;101333.44;5078194;28;811;-34
2022/02/26 09:42:38;;;;;;;;;;;;;;;30.48;17.13;101334.97;5077785;28;836;-34
2022/02/26 09:45:04;;;;;;;;;;;;;;;30.63;17.18;101335.75;5076201;28;817;-35
2022/02/26 09:47:29;;;;;;;;;;;;;;;28.70;18.51;101336.06;5077756;28;1918;-35
2022/02/26 09:49:54;;;;;;;;;;;;;;;28.05;19.53;101340.75;5078421;28;865;-35
2022/02/26 09:52:21;;;;;;;;;;;;;;;27.78;20.16;101338.31;5077968;28;832;-35
2022/02/26 09:54:49;;;;;;;;;;;;;;;27.55;20.35;101343.56;5078218;28;798;-36
2022/02/26 09:57:15;;;;;;;;;;;;;;;27.51;20.43;101343.91;5073947;28;832;-34
2022/02/26 09:59:42;;;;;;;;;;;;;;;27.42;20.74;101333.28;5077985;28;984;-34
2022/02/26 10:02:07;;;;;;;;;;;;;;;27.30;20.67;101336.34;5074475;28;925;-34
2022/02/26 10:04:36;;;;;;;;;;;;;;;28.64;19.70;101334.06;5078075;28;813;-35
2022/02/26 10:07:11;;;;;;;;;;;;;;;29.31;18.77;101328.97;5077819;28;2005;-35
2022/02/26 10:09:37;;;;;;;;;;;;;;;29.78;18.40;101330.75;5078040;28;740;-35
2022/02/26 10:12:03;;;;;;;;;;;;;;;30.02;18.03;101340.47;5077890;28;837;-35
2022/02/26 10:14:28;;;;;;;;;;;;;;;30.27;17.73;101331.19;5077188;28;795;-35
2022/02/26 10:16:54;;;;;;;;;;;;;;;30.41;17.65;101334.91;5074601;28;1240;-35
2022/02/26 10:19:20;;;;;;;;;;;;;;;29.37;18.54;101329.28;5075913;28;801;-35
2022/02/26 10:21:45;;;;;;;;;;;;;;;28.39;19.71;101326.09;5076506;28;806;-35
2022/02/26 10:24:13;;;;;;;;;;;;;;;28.03;19.88;101332.00;5077727;28;877;-34
2022/02/26 10:26:39;;;;;;;;;;;;;;;29.33;18.84;101328.78;5077781;28;1894;-34
2022/02/26 10:29:11;;;;;;;;;;;;;;;29.76;18.40;101325.50;5077181;28;805;-36
2022/02/26 10:31:42;;;;;;;;;;;;;;;30.19;17.76;101334.81;5077078;28;786;-34
2022/02/26 10:34:28;;;;;;;;;;;;;;;30.47;17.69;101334.13;5071897;28;865;-35
2022/02/26 10:37:00;;;;;;;;;;;;;;;30.84;17.13;101331.41;5067720;28;1829;-35
2022/02/26 10:39:29;;;;;;;;;;;;;;;31.11;16.74;101342.50;5077263;28;881;-35
2022/02/26 10:41:54;;;;;;;;;;;;;;;31.24;16.62;101335.50;5077061;28;722;-35
2022/02/26 10:44:20;;;;;;;;;;;;;;;31.34;16.66;101332.44;5077146;28;813;-35
2022/02/26 10:46:45;;;;;;;;;;;;;;;31.35;16.62;101328.66;5083237;28;1973;-36
2022/02/26 10:49:12;;;;;;;;;;;;;;;29.47;18.35;101324.44;5075949;28;980;-35
2022/02/26 10:51:39;;;;;;;;;;;;;;;28.72;19.25;101330.47;5075818;28;1135;-35
2022/02/26 10:54:05;;;;;;;;;;;;;;;28.54;19.55;101328.91;5077241;28;864;-34
2022/02/26 10:56:40;;;;;;;;;;;;;;;29.24;18.78;101321.78;5076814;28;948;-37
2022/02/26 10:59:06;;;;;;;;;;;;;;;30.29;17.70;101324.56;5071037;28;918;-37
2022/02/26 11:01:31;;;;;;;;;;;;;;;29.20;18.56;101326.72;5074428;28;950;-37
2022/02/26 11:03:56;;;;;;;;;;;;;;;28.51;19.66;101312.16;5076582;28;910;-36
2022/02/26 11:06:22;;;;;;;;;;;;;;;28.27;20.06;101301.28;5076522;28;1981;-35
2022/02/26 11:08:47;;;;;;;;;;;;;;;28.09;20.35;101296.94;5069744;28;851;-35
2022/02/26 11:11:13;;;;;;;;;;;;;;;28.01;20.17;101299.69;5076691;28;816;-34
2022/02/26 11:13:38;;;;;;;;;;;;;;;27.77;20.48;101296.09;5075798;28;813;-35
2022/02/26 11:16:03;;;;;;;;;;;;;;;27.70;20.58;101304.03;5076236;28;762;-34
2022/02/26 11:18:38;;;;;;;;;;;;;;;27.55;20.70;101300.31;5076167;28;876;-34
2022/02/26 11:21:08;;;;;;;;;;;;;;;27.36;21.18;101308.66;5076027;28;853;-34
2022/02/26 11:23:33;;;;;;;;;;;;;;;27.64;20.71;101302.00;5068973;28;889;-34
2022/02/26 11:25:59;;;;;;;;;;;;;;;28.32;20.31;101304.28;5069922;28;1905;-34
2022/02/26 11:28:24;;;;;;;;;;;;;;;29.56;18.75;101300.81;5075964;28;796;-35
2022/02/26 11:30:59;;;;;;;;;;;;;;;29.97;18.35;101310.34;5074631;28;844;-35
2022/02/26 11:33:24;;;;;;;;;;;;;;;30.42;17.93;101309.44;5069678;28;1247;-34
2022/02/26 11:35:53;;;;;;;;;;;;;;;30.70;17.68;101316.81;5076164;28;923;-35
2022/02/26 11:38:18;;;;;;;;;;;;;;;30.96;17.50;101320.00;5073136;28;853;-35
2022/02/26 11:40:43;;;;;;;;;;;;;;;31.02;17.43;101319.22;5075998;28;812;-35
2022/02/26 11:43:10;;;;;;;;;;;;;;;31.02;17.27;101317.34;5074167;28;1239;-35
2022/02/26 11:45:35;;;;;;;;;;;;;;;31.01;17.18;101317.53;5073183;28;1229;-35
2022/02/26 11:48:04;;;;;;;;;;;;;;;29.08;19.00;101316.31;5076435;28;1906;-35
2022/02/26 11:50:31;;;;;;;;;;;;;;;29.43;19.08;101309.56;5075528;28;910;-35
2022/02/26 11:53:07;;;;;;;;;;;;;;;30.57;17.70;101311.25;5075490;28;786;-35
2022/02/26 11:55:34;;;;;;;;;;;;;;;30.73;17.67;101307.44;5076572;28;818;-36
2022/02/26 11:57:59;;;;;;;;;;;;;;;30.85;17.68;101311.34;5075654;28;815;-36
2022/02/26 12:00:25;;;;;;;;;;;;;;;30.82;17.52;101310.88;5075560;28;828;-36
2022/02/26 12:03:09;;;;;;;;;;;;;;;29.49;18.90;101307.97;5074047;28;902;-34
2022/02/26 12:05:34;;;;;;;;;;;;;;;28.57;19.92;101301.47;5070296;28;849;-34
2022/02/26 12:07:59;;;;;;;;;;;;;;;28.26;20.35;101312.28;5073863;28;1958;-36
2022/02/26 12:10:27;;;;;;;;;;;;;;;29.79;18.59;101303.44;5075844;28;906;-36
2022/02/26 12:12:54;;;;;;;;;;;;;;;30.53;17.83;101316.25;5075217;28;804;-36
2022/02/26 12:15:23;;;;;;;;;;;;;;;30.60;17.70;101311.72;5073614;28;910;-36
2022/02/26 12:17:54;;;;;;;;;;;;;;;30.65;17.72;101320.13;5073696;28;1245;-35
2022/02/26 12:20:21;;;;;;;;;;;;;;;30.72;17.73;101316.63;5075193;28;897;-35
2022/02/26 12:22:47;;;;;;;;;;;;;;;30.75;17.78;101313.50;5075836;28;809;-35
2022/02/26 12:25:13;;;;;;;;;;;;;;;29.93;18.25;101309.88;5075628;28;782;-37
2022/02/26 12:27:38;;;;;;;;;;;;;;;28.79;19.55;101303.50;5075699;28;1960;-36
2022/02/26 12:30:07;;;;;;;;;;;;;;;29.65;19.04;101307.84;5087908;28;857;-36
2022/02/26 12:32:32;;;;;;;;;;;;;;;30.72;17.66;101311.19;5073880;28;1353;-36
2022/02/26 12:34:59;;;;;;;;;;;;;;;30.85;17.59;101308.63;5073687;28;1250;-34
2022/02/26 12:37:25;;;;;;;;;;;;;;;30.73;17.50;101305.56;5069305;28;857;-34
2022/02/26 12:39:51;;;;;;;;;;;;;;;30.78;17.77;101313.16;5075446;28;1571;-33
2022/02/26 12:42:23;;;;;;;;;;;;;;;30.79;17.78;101312.94;5074669;28;777;-34
2022/02/26 12:44:52;;;;;;;;;;;;;;;29.75;18.53;101310.25;5075816;28;872;-35
2022/02/26 12:47:17;;;;;;;;;;;;;;;28.83;19.71;101319.22;5068766;28;1910;-35
2022/02/26 12:49:42;;;;;;;;;;;;;;;29.91;18.75;101322.78;5075237;28;825;-36